Longville, Minnesota
Current Conditions -  °F | °C
As of 4:56 PM on Thursday 23 Oct 2014 (Local Time) from KXVG Reporting Station
Clear Clear  
Wind Chill: 64°   Ceiling: Unl
Heat Index: 64°   Visibility: 10mi
Dew Point: 39°   Wind: 3mph
Humidity: 40%   Direction: 190°S
Pressure: 29.89"   Gusts: NA
Location:  46.99°N, 94.21°W
Report Text: KXVG 232156Z AUTO 19003KT 10SM CLR 18/04 A2989 RMK AO2
Loading
Personal Weather Stations






























Interactive Weather Map
Tropical Storm Tracking
New forecast layout! Learn more

10-Day Weather Forecast

Advertisements
Track Severe Weather on mobile